Time,TemperatureF,DewpointF,PressureIn,WindDirection,WindDirectionDegrees,WindSpeedMPH,WindSpeedGustMPH,Humidity,HourlyPrecipIn,Conditions,Clouds,dailyrainin,SoftwareType,DateUTC
2013-02-13 00:00:00,50.5,48.6,29.90,NE,46,2.0,2.0,93,0.00,,,0.00,Wunderground v.1.15,2013-02-13 05:00:00,
2013-02-13 00:06:00,50.3,48.1,29.90,ENE,78,1.0,2.0,92,0.00,,,0.00,Wunderground v.1.15,2013-02-13 05:06:00,
2013-02-13 00:15:00,50.3,48.4,29.86,East,83,3.0,5.0,93,0.00,,,0.00,Wunderground v.1.15,2013-02-13 05:15:00,
2013-02-13 00:21:00,50.3,48.4,29.87,East,86,3.0,3.0,93,0.00,,,0.00,Wunderground v.1.15,2013-02-13 05:21:00,
2013-02-13 00:25:00,50.2,48.3,29.88,NE,49,3.0,3.0,93,0.00,,,0.00,Wunderground v.1.15,2013-02-13 05:25:00,
2013-02-13 00:30:00,50.1,48.2,29.87,ENE,65,2.0,2.0,93,0.00,,,0.00,Wunderground v.1.15,2013-02-13 05:30:00,
2013-02-13 00:36:00,50.1,48.2,29.88,East,82,2.0,3.0,93,0.00,,,0.00,Wunderground v.1.15,2013-02-13 05:36:00,
2013-02-13 00:45:00,49.9,48.0,29.88,ENE,59,2.0,2.0,93,0.00,,,0.00,Wunderground v.1.15,2013-02-13 05:45:00,
2013-02-13 00:51:00,49.9,48.0,29.86,ENE,76,1.0,3.0,93,0.00,,,0.00,Wunderground v.1.15,2013-02-13 05:51:00,
2013-02-13 01:00:00,49.9,48.0,29.84,East,86,3.0,3.0,93,0.00,,,0.00,Wunderground v.1.15,2013-02-13 06:00:00,
2013-02-13 01:05:00,49.9,48.2,29.83,ENE,65,2.0,3.0,94,0.00,,,0.01,Wunderground v.1.15,2013-02-13 06:05:00,
2013-02-13 01:10:00,49.9,48.2,29.83,ENE,58,2.0,3.0,94,0.00,,,0.01,Wunderground v.1.15,2013-02-13 06:10:00,
2013-02-13 01:16:00,49.9,48.2,29.85,SE,130,2.0,4.0,94,0.00,,,0.01,Wunderground v.1.15,2013-02-13 06:16:00,
2013-02-13 01:25:00,49.2,47.3,29.84,ENE,61,5.0,5.0,93,0.00,,,0.01,Wunderground v.1.15,2013-02-13 06:25:00,
2013-02-13 01:31:00,49.1,47.4,29.85,NE,40,4.0,4.0,94,0.00,,,0.01,Wunderground v.1.15,2013-02-13 06:31:00,
2013-02-13 01:40:00,49.0,47.3,29.84,ENE,76,4.0,4.0,94,0.00,,,0.01,Wunderground v.1.15,2013-02-13 06:40:00,
2013-02-13 01:45:00,49.0,47.3,29.84,ENE,65,3.0,4.0,94,0.00,,,0.01,Wunderground v.1.15,2013-02-13 06:45:00,
2013-02-13 01:55:00,49.1,47.4,29.82,NNE,21,5.0,7.0,94,0.00,,,0.01,Wunderground v.1.15,2013-02-13 06:55:00,
2013-02-13 02:01:00,49.0,47.3,29.85,NE,35,4.0,4.0,94,0.00,,,0.01,Wunderground v.1.15,2013-02-13 07:01:00,
2013-02-13 02:11:00,48.6,47.0,29.84,East,88,3.0,3.0,94,0.00,,,0.01,Wunderground v.1.15,2013-02-13 07:11:00,
2013-02-13 02:20:00,48.4,46.8,29.84,SE,132,4.0,4.0,94,0.00,,,0.01,Wunderground v.1.15,2013-02-13 07:20:00,
2013-02-13 02:26:00,48.2,46.6,29.84,East,86,4.0,4.0,94,0.00,,,0.01,Wunderground v.1.15,2013-02-13 07:26:00,
2013-02-13 02:35:00,48.0,46.4,29.83,ENE,58,5.0,6.0,94,0.00,,,0.01,Wunderground v.1.15,2013-02-13 07:35:00,
2013-02-13 02:41:00,47.9,46.3,29.82,East,80,5.0,7.0,94,0.00,,,0.01,Wunderground v.1.15,2013-02-13 07:41:00,
2013-02-13 02:50:00,47.9,46.3,29.81,ENE,66,6.0,9.0,94,0.00,,,0.02,Wunderground v.1.15,2013-02-13 07:50:00,
2013-02-13 02:55:00,47.8,46.2,29.80,ENE,60,6.0,9.0,94,0.00,,,0.02,Wunderground v.1.15,2013-02-13 07:55:00,
2013-02-13 03:06:00,47.9,46.3,29.79,East,101,7.0,7.0,94,0.00,,,0.02,Wunderground v.1.15,2013-02-13 08:06:00,
2013-02-13 03:15:00,48.3,46.7,29.79,East,91,4.0,5.0,94,0.00,,,0.02,Wunderground v.1.15,2013-02-13 08:15:00,
2013-02-13 03:20:00,48.2,46.6,29.78,ESE,107,4.0,5.0,94,0.00,,,0.02,Wunderground v.1.15,2013-02-13 08:20:00,
2013-02-13 03:26:00,48.1,46.5,29.77,ESE,107,6.0,9.0,94,0.00,,,0.02,Wunderground v.1.15,2013-02-13 08:26:00,
2013-02-13 03:35:00,48.2,46.6,29.76,ESE,105,7.0,9.0,94,0.00,,,0.02,Wunderground v.1.15,2013-02-13 08:35:00,
2013-02-13 03:40:00,48.1,46.5,29.78,ENE,67,6.0,6.0,94,0.00,,,0.02,Wunderground v.1.15,2013-02-13 08:40:00,
2013-02-13 03:50:00,48.0,46.4,29.79,East,101,4.0,4.0,94,0.00,,,0.02,Wunderground v.1.15,2013-02-13 08:50:00,
2013-02-13 03:56:00,48.0,46.4,29.78,ESE,103,4.0,4.0,94,0.00,,,0.02,Wunderground v.1.15,2013-02-13 08:56:00,
2013-02-13 04:05:00,48.0,46.4,29.73,SE,139,7.0,10.0,94,0.00,,,0.02,Wunderground v.1.15,2013-02-13 09:05:00,
2013-02-13 04:15:00,48.0,46.4,29.78,SSW,211,6.0,12.0,94,0.00,,,0.03,Wunderground v.1.15,2013-02-13 09:15:00,
2013-02-13 04:20:00,48.0,46.4,29.75,East,88,4.0,7.0,94,0.00,,,0.03,Wunderground v.1.15,2013-02-13 09:20:00,
2013-02-13 04:25:00,48.0,46.4,29.75,East,90,6.0,9.0,94,0.00,,,0.03,Wunderground v.1.15,2013-02-13 09:25:00,
2013-02-13 04:31:00,48.0,46.4,29.76,East,81,7.0,7.0,94,0.00,,,0.03,Wunderground v.1.15,2013-02-13 09:31:00,
2013-02-13 04:36:00,48.0,46.4,29.74,ESE,107,6.0,8.0,94,0.00,,,0.03,Wunderground v.1.15,2013-02-13 09:36:00,
2013-02-13 04:41:00,48.1,46.5,29.74,East,98,6.0,6.0,94,0.00,,,0.03,Wunderground v.1.15,2013-02-13 09:41:00,
2013-02-13 04:50:00,48.1,46.5,29.74,ESE,105,6.0,6.0,94,0.00,,,0.03,Wunderground v.1.15,2013-02-13 09:50:00,
2013-02-13 04:55:00,48.1,46.5,29.73,East,97,5.0,7.0,94,0.00,,,0.03,Wunderground v.1.15,2013-02-13 09:55:00,
2013-02-13 05:00:00,48.0,46.4,29.73,SE,126,5.0,5.0,94,0.00,,,0.03,Wunderground v.1.15,2013-02-13 10:00:00,
2013-02-13 05:06:00,47.9,46.3,29.73,SE,127,7.0,7.0,94,0.00,,,0.03,Wunderground v.1.15,2013-02-13 10:06:00,
2013-02-13 05:11:00,47.9,46.3,29.74,SE,139,8.0,8.0,94,0.00,,,0.03,Wunderground v.1.15,2013-02-13 10:11:00,
2013-02-13 05:21:00,48.1,46.5,29.73,ESE,110,5.0,7.0,94,0.00,,,0.03,Wunderground v.1.15,2013-02-13 10:21:00,
2013-02-13 05:26:00,48.2,46.6,29.74,East,94,5.0,7.0,94,0.00,,,0.03,Wunderground v.1.15,2013-02-13 10:26:00,
2013-02-13 05:35:00,48.3,46.7,29.74,ENE,75,3.0,4.0,94,0.00,,,0.03,Wunderground v.1.15,2013-02-13 10:35:00,
2013-02-13 05:41:00,48.3,46.7,29.74,NE,54,3.0,3.0,94,0.00,,,0.03,Wunderground v.1.15,2013-02-13 10:41:00,
2013-02-13 05:50:00,48.2,46.6,29.75,NE,45,3.0,3.0,94,0.00,,,0.03,Wunderground v.1.15,2013-02-13 10:50:00,
2013-02-13 05:56:00,48.1,46.5,29.73,NE,42,3.0,3.0,94,0.00,,,0.03,Wunderground v.1.15,2013-02-13 10:56:00,
2013-02-13 06:01:00,48.1,46.5,29.73,NE,52,2.0,2.0,94,0.00,,,0.03,Wunderground v.1.15,2013-02-13 11:01:00,
2013-02-13 06:11:00,48.0,46.4,29.73,ENE,59,3.0,3.0,94,0.00,,,0.03,Wunderground v.1.15,2013-02-13 11:11:00,
2013-02-13 06:21:00,48.0,46.4,29.74,NE,42,2.0,3.0,94,0.00,,,0.03,Wunderground v.1.15,2013-02-13 11:21:00,
2013-02-13 06:31:00,48.0,46.6,29.75,NNE,29,2.0,2.0,95,0.00,,,0.04,Wunderground v.1.15,2013-02-13 11:31:00,
2013-02-13 06:36:00,48.0,46.6,29.76,NNE,25,2.0,3.0,95,0.00,,,0.04,Wunderground v.1.15,2013-02-13 11:36:00,
2013-02-13 06:41:00,48.0,46.6,29.75,NNE,25,3.0,5.0,95,0.00,,,0.04,Wunderground v.1.15,2013-02-13 11:41:00,
2013-02-13 06:51:00,48.0,46.6,29.74,ENE,64,2.0,2.0,95,0.00,,,0.04,Wunderground v.1.15,2013-02-13 11:51:00,
2013-02-13 07:01:00,47.9,46.5,29.74,NE,47,2.0,2.0,95,0.00,,,0.04,Wunderground v.1.15,2013-02-13 12:01:00,
2013-02-13 07:10:00,48.0,46.6,29.73,NE,47,1.0,1.0,95,0.00,,,0.04,Wunderground v.1.15,2013-02-13 12:10:00,
2013-02-13 07:16:00,48.0,46.6,29.73,ENE,72,1.0,1.0,95,0.00,,,0.04,Wunderground v.1.15,2013-02-13 12:16:00,
2013-02-13 07:25:00,48.1,46.7,29.74,ENE,71,0.0,2.0,95,0.00,,,0.04,Wunderground v.1.15,2013-02-13 12:25:00,
2013-02-13 07:30:00,48.1,46.7,29.73,ENE,71,0.0,1.0,95,0.00,,,0.04,Wunderground v.1.15,2013-02-13 12:30:00,
2013-02-13 07:36:00,48.1,46.7,29.73,ESE,111,1.0,1.0,95,0.00,,,0.04,Wunderground v.1.15,2013-02-13 12:36:00,
2013-02-13 07:45:00,48.2,46.8,29.72,NE,43,1.0,5.0,95,0.00,,,0.04,Wunderground v.1.15,2013-02-13 12:45:00,
2013-02-13 07:55:00,48.2,46.8,29.73,ENE,77,1.0,2.0,95,0.00,,,0.04,Wunderground v.1.15,2013-02-13 12:55:00,
2013-02-13 08:05:00,48.4,47.0,29.71,ENE,77,1.0,1.0,95,0.00,,,0.04,Wunderground v.1.15,2013-02-13 13:05:00,
2013-02-13 08:10:00,48.5,47.1,29.72,ENE,77,1.0,3.0,95,0.00,,,0.05,Wunderground v.1.15,2013-02-13 13:10:00,
2013-02-13 08:15:00,48.5,47.1,29.71,NE,46,1.0,3.0,95,0.00,,,0.05,Wunderground v.1.15,2013-02-13 13:15:00,
2013-02-13 08:25:00,48.5,47.1,29.72,NNE,28,3.0,3.0,95,0.00,,,0.05,Wunderground v.1.15,2013-02-13 13:25:00,
2013-02-13 08:30:00,48.6,47.2,29.73,NNW,339,3.0,3.0,95,0.00,,,0.05,Wunderground v.1.15,2013-02-13 13:30:00,
2013-02-13 08:36:00,48.6,47.2,29.75,NNW,328,4.0,4.0,95,0.00,,,0.05,Wunderground v.1.15,2013-02-13 13:36:00,
2013-02-13 08:46:00,48.6,47.2,29.76,NNW,338,3.0,4.0,95,0.00,,,0.05,Wunderground v.1.15,2013-02-13 13:46:00,
2013-02-13 08:55:00,48.6,47.2,29.75,NNW,335,3.0,3.0,95,0.00,,,0.05,Wunderground v.1.15,2013-02-13 13:55:00,
2013-02-13 09:01:00,48.8,47.4,29.76,NNW,335,2.0,2.0,95,0.00,,,0.05,Wunderground v.1.15,2013-02-13 14:01:00,
2013-02-13 09:10:00,48.9,47.5,29.76,WNW,296,3.0,4.0,95,0.00,,,0.05,Wunderground v.1.15,2013-02-13 14:10:00,
2013-02-13 09:15:00,48.9,47.5,29.74,NW,324,3.0,4.0,95,0.00,,,0.05,Wunderground v.1.15,2013-02-13 14:15:00,
2013-02-13 09:25:00,48.8,47.4,29.74,NW,325,2.0,2.0,95,0.00,,,0.05,Wunderground v.1.15,2013-02-13 14:25:00,
2013-02-13 09:30:00,49.0,47.9,29.75,NW,325,2.0,2.0,96,0.00,,,0.05,Wunderground v.1.15,2013-02-13 14:30:00,
2013-02-13 09:35:00,49.2,48.1,29.75,NW,325,2.0,2.0,96,0.00,,,0.05,Wunderground v.1.15,2013-02-13 14:35:00,
2013-02-13 09:41:00,49.2,48.1,29.75,NW,325,1.0,1.0,96,0.00,,,0.05,Wunderground v.1.15,2013-02-13 14:41:00,
2013-02-13 09:50:00,49.4,48.3,29.75,NW,325,1.0,1.0,96,0.00,,,0.05,Wunderground v.1.15,2013-02-13 14:50:00,
2013-02-13 09:56:00,49.6,48.5,29.74,NW,325,1.0,1.0,96,0.00,,,0.05,Wunderground v.1.15,2013-02-13 14:56:00,
2013-02-13 10:05:00,49.7,48.6,29.73,ENE,58,1.0,3.0,96,0.00,,,0.05,Wunderground v.1.15,2013-02-13 15:05:00,
2013-02-13 10:11:00,49.8,48.7,29.73,NNE,27,2.0,2.0,96,0.00,,,0.05,Wunderground v.1.15,2013-02-13 15:11:00,
2013-02-13 10:21:00,50.0,48.9,29.73,NNE,27,2.0,2.0,96,0.00,,,0.05,Wunderground v.1.15,2013-02-13 15:21:00,
2013-02-13 10:26:00,50.0,48.6,29.73,NNE,27,2.0,2.0,95,0.00,,,0.05,Wunderground v.1.15,2013-02-13 15:26:00,
2013-02-13 10:35:00,50.1,49.0,29.73,NNE,27,0.0,1.0,96,0.00,,,0.05,Wunderground v.1.15,2013-02-13 15:35:00,
2013-02-13 10:41:00,50.3,49.2,29.72,NNE,27,0.0,3.0,96,0.00,,,0.05,Wunderground v.1.15,2013-02-13 15:41:00,
2013-02-13 10:50:00,50.9,49.8,29.71,SSE,167,2.0,2.0,96,0.00,,,0.05,Wunderground v.1.15,2013-02-13 15:50:00,
2013-02-13 11:00:00,51.5,50.4,29.70,SSE,147,3.0,3.0,96,0.00,,,0.05,Wunderground v.1.15,2013-02-13 16:00:00,
2013-02-13 11:06:00,51.6,50.5,29.70,SSE,159,3.0,4.0,96,0.00,,,0.05,Wunderground v.1.15,2013-02-13 16:06:00,
2013-02-13 11:11:00,51.9,50.8,29.72,SSW,205,3.0,3.0,96,0.00,,,0.06,Wunderground v.1.15,2013-02-13 16:11:00,
2013-02-13 11:21:00,52.5,51.4,29.72,West,273,3.0,3.0,96,0.00,,,0.06,Wunderground v.1.15,2013-02-13 16:21:00,
2013-02-13 11:30:00,53.3,52.2,29.72,SW,232,3.0,5.0,96,0.00,,,0.06,Wunderground v.1.15,2013-02-13 16:30:00,
2013-02-13 11:36:00,53.3,51.9,29.71,SW,220,5.0,5.0,95,0.00,,,0.06,Wunderground v.1.15,2013-02-13 16:36:00,
2013-02-13 11:45:00,53.9,52.5,29.71,SSW,205,5.0,5.0,95,0.00,,,0.06,Wunderground v.1.15,2013-02-13 16:45:00,
2013-02-13 11:50:00,54.2,52.8,29.71,WSW,249,5.0,5.0,95,0.00,,,0.06,Wunderground v.1.15,2013-02-13 16:50:00,
2013-02-13 11:56:00,54.2,52.8,29.70,WSW,242,4.0,5.0,95,0.00,,,0.06,Wunderground v.1.15,2013-02-13 16:56:00,
2013-02-13 12:01:00,54.4,53.0,29.69,SW,215,4.0,7.0,95,0.00,,,0.06,Wunderground v.1.15,2013-02-13 17:01:00,
2013-02-13 12:10:00,54.9,53.5,29.68,SW,225,6.0,6.0,95,0.00,,,0.06,Wunderground v.1.15,2013-02-13 17:10:00,
2013-02-13 12:16:00,55.3,53.9,29.68,SSW,208,5.0,7.0,95,0.00,,,0.06,Wunderground v.1.15,2013-02-13 17:16:00,
2013-02-13 12:21:00,55.7,54.3,29.68,SSW,202,6.0,7.0,95,0.00,,,0.06,Wunderground v.1.15,2013-02-13 17:21:00,
2013-02-13 12:26:00,55.8,54.4,29.66,South,171,8.0,8.0,95,0.00,,,0.06,Wunderground v.1.15,2013-02-13 17:26:00,
2013-02-13 12:31:00,56.0,54.6,29.67,SW,232,8.0,8.0,95,0.00,,,0.06,Wunderground v.1.15,2013-02-13 17:31:00,
2013-02-13 12:40:00,56.6,55.2,29.67,SW,234,5.0,5.0,95,0.00,,,0.06,Wunderground v.1.15,2013-02-13 17:40:00,
2013-02-13 12:45:00,56.9,55.5,29.67,WSW,244,6.0,6.0,95,0.00,,,0.06,Wunderground v.1.15,2013-02-13 17:45:00,
2013-02-13 12:50:00,57.1,55.7,29.67,West,265,6.0,6.0,95,0.00,,,0.06,Wunderground v.1.15,2013-02-13 17:50:00,
2013-02-13 12:56:00,57.3,55.6,29.66,SW,216,5.0,6.0,94,0.00,,,0.06,Wunderground v.1.15,2013-02-13 17:56:00,
2013-02-13 13:01:00,57.7,56.3,29.65,West,272,4.0,4.0,95,0.00,,,0.06,Wunderground v.1.15,2013-02-13 18:01:00,
2013-02-13 13:06:00,57.8,56.4,29.65,SW,228,3.0,4.0,95,0.00,,,0.06,Wunderground v.1.15,2013-02-13 18:06:00,
2013-02-13 13:15:00,58.5,57.1,29.66,West,277,4.0,7.0,95,0.00,,,0.06,Wunderground v.1.15,2013-02-13 18:15:00,
2013-02-13 13:21:00,58.8,57.1,29.65,West,259,5.0,7.0,94,0.00,,,0.06,Wunderground v.1.15,2013-02-13 18:21:00,
2013-02-13 13:26:00,59.0,57.3,29.65,WNW,283,5.0,7.0,94,0.00,,,0.06,Wunderground v.1.15,2013-02-13 18:26:00,
2013-02-13 13:36:00,59.5,57.8,29.64,SW,221,4.0,5.0,94,0.00,,,0.06,Wunderground v.1.15,2013-02-13 18:36:00,
2013-02-13 13:45:00,60.0,58.3,29.65,WSW,242,5.0,5.0,94,0.00,,,0.06,Wunderground v.1.15,2013-02-13 18:45:00,
2013-02-13 13:55:00,60.3,58.3,29.65,WSW,257,4.0,6.0,93,0.00,,,0.06,Wunderground v.1.15,2013-02-13 18:55:00,
2013-02-13 14:00:00,60.5,58.5,29.65,WSW,252,4.0,4.0,93,0.00,,,0.06,Wunderground v.1.15,2013-02-13 19:00:00,
2013-02-13 14:06:00,60.8,58.8,29.65,West,262,4.0,4.0,93,0.00,,,0.06,Wunderground v.1.15,2013-02-13 19:06:00,
2013-02-13 14:15:00,61.4,59.4,29.63,SW,225,4.0,4.0,93,0.00,,,0.06,Wunderground v.1.15,2013-02-13 19:15:00,
2013-02-13 14:21:00,61.7,59.4,29.66,WNW,294,5.0,8.0,92,0.00,,,0.06,Wunderground v.1.15,2013-02-13 19:21:00,
2013-02-13 14:30:00,62.3,59.6,29.64,West,263,6.0,6.0,91,0.00,,,0.06,Wunderground v.1.15,2013-02-13 19:30:00,
2013-02-13 14:35:00,62.6,59.6,29.63,WSW,244,6.0,6.0,90,0.00,,,0.07,Wunderground v.1.15,2013-02-13 19:35:00,
2013-02-13 14:40:00,62.8,59.8,29.63,SSW,205,6.0,7.0,90,0.00,,,0.07,Wunderground v.1.15,2013-02-13 19:40:00,
2013-02-13 14:46:00,62.9,59.6,29.64,WSW,246,8.0,8.0,89,0.00,,,0.07,Wunderground v.1.15,2013-02-13 19:46:00,
2013-02-13 14:56:00,63.2,59.3,29.64,WSW,248,9.0,13.0,87,0.00,,,0.07,Wunderground v.1.15,2013-02-13 19:56:00,
2013-02-13 15:06:00,63.6,59.0,29.64,WSW,252,8.0,8.0,85,0.00,,,0.07,Wunderground v.1.15,2013-02-13 20:06:00,
2013-02-13 15:11:00,63.9,58.6,29.64,SW,236,8.0,13.0,83,0.00,,,0.07,Wunderground v.1.15,2013-02-13 20:11:00,
2013-02-13 15:20:00,64.4,57.4,29.63,WSW,246,11.0,11.0,78,0.00,,,0.07,Wunderground v.1.15,2013-02-13 20:20:00,
2013-02-13 15:25:00,64.5,57.1,29.64,SW,230,9.0,11.0,77,0.00,,,0.07,Wunderground v.1.15,2013-02-13 20:25:00,
2013-02-13 15:31:00,64.5,56.8,29.64,West,266,9.0,9.0,76,0.00,,,0.07,Wunderground v.1.15,2013-02-13 20:31:00,
2013-02-13 15:36:00,64.6,56.9,29.65,WSW,257,10.0,11.0,76,0.00,,,0.07,Wunderground v.1.15,2013-02-13 20:36:00,
2013-02-13 15:46:00,64.5,56.0,29.65,West,259,11.0,13.0,74,0.00,,,0.07,Wunderground v.1.15,2013-02-13 20:46:00,
2013-02-13 15:55:00,64.6,53.8,29.65,WNW,288,11.0,12.0,68,0.00,,,0.07,Wunderground v.1.15,2013-02-13 20:55:00,
2013-02-13 16:01:00,64.6,53.8,29.64,WSW,258,11.0,11.0,68,0.00,,,0.07,Wunderground v.1.15,2013-02-13 21:01:00,
2013-02-13 16:06:00,64.4,53.6,29.63,SW,231,10.0,11.0,68,0.00,,,0.07,Wunderground v.1.15,2013-02-13 21:06:00,
2013-02-13 16:15:00,64.3,54.3,29.64,SW,227,8.0,9.0,70,0.00,,,0.07,Wunderground v.1.15,2013-02-13 21:15:00,
2013-02-13 16:20:00,64.2,53.4,29.64,West,279,9.0,10.0,68,0.00,,,0.07,Wunderground v.1.15,2013-02-13 21:20:00,
2013-02-13 16:25:00,64.1,52.9,29.64,West,273,11.0,12.0,67,0.00,,,0.07,Wunderground v.1.15,2013-02-13 21:25:00,
2013-02-13 16:31:00,63.8,52.6,29.64,SSW,192,12.0,12.0,67,0.00,,,0.07,Wunderground v.1.15,2013-02-13 21:31:00,
2013-02-13 16:36:00,63.6,52.4,29.65,WSW,248,11.0,12.0,67,0.00,,,0.07,Wunderground v.1.15,2013-02-13 21:36:00,
2013-02-13 16:45:00,63.2,52.5,29.66,West,267,10.0,10.0,68,0.00,,,0.07,Wunderground v.1.15,2013-02-13 21:45:00,
2013-02-13 16:50:00,63.1,52.4,29.66,WSW,237,9.0,9.0,68,0.00,,,0.07,Wunderground v.1.15,2013-02-13 21:50:00,
2013-02-13 16:56:00,63.0,52.3,29.66,WSW,254,10.0,10.0,68,0.00,,,0.07,Wunderground v.1.15,2013-02-13 21:56:00,
2013-02-13 17:01:00,62.8,52.5,29.67,West,267,9.0,9.0,69,0.00,,,0.07,Wunderground v.1.15,2013-02-13 22:01:00,
2013-02-13 17:11:00,62.6,52.7,29.68,WSW,257,9.0,9.0,70,0.00,,,0.07,Wunderground v.1.15,2013-02-13 22:11:00,
2013-02-13 17:20:00,62.4,52.5,29.69,WSW,244,9.0,9.0,70,0.00,,,0.07,Wunderground v.1.15,2013-02-13 22:20:00,
2013-02-13 17:25:00,62.1,52.6,29.69,West,279,8.0,12.0,71,0.00,,,0.07,Wunderground v.1.15,2013-02-13 22:25:00,
2013-02-13 17:31:00,61.9,52.4,29.69,West,263,9.0,9.0,71,0.00,,,0.07,Wunderground v.1.15,2013-02-13 22:31:00,
2013-02-13 17:40:00,61.3,51.8,29.67,WSW,254,8.0,8.0,71,0.00,,,0.07,Wunderground v.1.15,2013-02-13 22:40:00,
2013-02-13 17:45:00,61.0,51.5,29.68,WNW,290,7.0,9.0,71,0.00,,,0.07,Wunderground v.1.15,2013-02-13 22:45:00,
2013-02-13 17:51:00,60.8,51.3,29.68,WSW,248,7.0,9.0,71,0.00,,,0.07,Wunderground v.1.15,2013-02-13 22:51:00,
2013-02-13 18:00:00,60.6,51.9,29.69,West,276,6.0,7.0,73,0.00,,,0.07,Wunderground v.1.15,2013-02-13 23:00:00,
2013-02-13 18:10:00,60.4,51.7,29.70,West,274,7.0,7.0,73,0.00,,,0.07,Wunderground v.1.15,2013-02-13 23:10:00,
2013-02-13 18:15:00,60.2,51.1,29.71,SW,225,9.0,9.0,72,0.00,,,0.07,Wunderground v.1.15,2013-02-13 23:15:00,
2013-02-13 18:21:00,60.2,50.4,29.71,WSW,252,10.0,10.0,70,0.00,,,0.07,Wunderground v.1.15,2013-02-13 23:21:00,
2013-02-13 18:30:00,59.8,50.0,29.72,West,260,12.0,12.0,70,0.00,,,0.07,Wunderground v.1.15,2013-02-13 23:30:00,
2013-02-13 18:36:00,59.4,50.4,29.72,WSW,245,11.0,18.0,72,0.00,,,0.07,Wunderground v.1.15,2013-02-13 23:36:00,
2013-02-13 18:45:00,58.5,50.2,29.72,WNW,284,10.0,12.0,74,0.00,,,0.07,Wunderground v.1.15,2013-02-13 23:45:00,
2013-02-13 18:50:00,58.1,50.2,29.71,WNW,284,9.0,9.0,75,0.00,,,0.07,Wunderground v.1.15,2013-02-13 23:50:00,
2013-02-13 18:56:00,57.5,50.3,29.69,West,264,7.0,9.0,77,0.00,,,0.07,Wunderground v.1.15,2013-02-13 23:56:00,
2013-02-13 19:05:00,56.9,50.5,29.71,West,272,7.0,8.0,79,0.00,,,0.07,Wunderground v.1.15,2013-02-14 00:05:00,
2013-02-13 19:10:00,56.7,50.6,29.70,WSW,255,6.0,6.0,80,0.00,,,0.07,Wunderground v.1.15,2013-02-14 00:10:00,
2013-02-13 19:16:00,56.4,50.6,29.70,West,260,5.0,6.0,81,0.00,,,0.07,Wunderground v.1.15,2013-02-14 00:16:00,
2013-02-13 19:26:00,56.0,50.9,29.72,West,279,5.0,7.0,83,0.00,,,0.07,Wunderground v.1.15,2013-02-14 00:26:00,
2013-02-13 19:35:00,55.8,50.7,29.70,West,281,4.0,7.0,83,0.00,,,0.07,Wunderground v.1.15,2013-02-14 00:35:00,
2013-02-13 19:40:00,55.7,50.3,29.71,NW,309,4.0,5.0,82,0.00,,,0.07,Wunderground v.1.15,2013-02-14 00:40:00,
2013-02-13 19:46:00,55.7,50.0,29.73,WNW,302,5.0,8.0,81,0.00,,,0.07,Wunderground v.1.15,2013-02-14 00:46:00,
2013-02-13 19:55:00,55.6,49.9,29.72,West,273,7.0,9.0,81,0.00,,,0.07,Wunderground v.1.15,2013-02-14 00:55:00,
2013-02-13 20:01:00,55.3,49.6,29.72,West,259,6.0,6.0,81,0.00,,,0.07,Wunderground v.1.15,2013-02-14 01:01:00,
2013-02-13 20:10:00,54.8,49.4,29.73,WNW,288,9.0,9.0,82,0.00,,,0.07,Wunderground v.1.15,2013-02-14 01:10:00,
2013-02-13 20:16:00,54.6,49.2,29.74,West,261,10.0,12.0,82,0.00,,,0.07,Wunderground v.1.15,2013-02-14 01:16:00,
2013-02-13 20:21:00,54.5,49.4,29.75,West,267,10.0,10.0,83,0.00,,,0.08,Wunderground v.1.15,2013-02-14 01:21:00,
2013-02-13 20:31:00,54.0,49.3,29.73,WSW,246,8.0,8.0,84,0.00,,,0.08,Wunderground v.1.15,2013-02-14 01:31:00,
2013-02-13 20:40:00,53.3,49.2,29.75,West,264,6.0,10.0,86,0.00,,,0.08,Wunderground v.1.15,2013-02-14 01:40:00,
2013-02-13 20:46:00,53.3,49.2,29.76,WSW,238,7.0,10.0,86,0.00,,,0.08,Wunderground v.1.15,2013-02-14 01:46:00,
2013-02-13 20:55:00,53.2,49.4,29.74,WSW,257,6.0,8.0,87,0.00,,,0.08,Wunderground v.1.15,2013-02-14 01:55:00,
2013-02-13 21:01:00,53.1,49.3,29.76,West,259,6.0,7.0,87,0.00,,,0.08,Wunderground v.1.15,2013-02-14 02:01:00,
2013-02-13 21:10:00,53.1,49.3,29.77,WSW,253,7.0,9.0,87,0.00,,,0.08,Wunderground v.1.15,2013-02-14 02:10:00,
2013-02-13 21:15:00,53.1,49.3,29.74,West,274,6.0,9.0,87,0.00,,,0.08,Wunderground v.1.15,2013-02-14 02:15:00,
2013-02-13 21:21:00,53.2,49.1,29.75,West,270,4.0,6.0,86,0.00,,,0.08,Wunderground v.1.15,2013-02-14 02:21:00,
2013-02-13 21:30:00,53.2,49.1,29.75,West,269,4.0,6.0,86,0.00,,,0.08,Wunderground v.1.15,2013-02-14 02:30:00,
2013-02-13 21:36:00,53.3,48.9,29.74,West,273,5.0,6.0,85,0.00,,,0.08,Wunderground v.1.15,2013-02-14 02:36:00,
2013-02-13 21:45:00,53.2,48.8,29.77,West,280,5.0,5.0,85,0.00,,,0.08,Wunderground v.1.15,2013-02-14 02:45:00,
2013-02-13 21:50:00,53.2,48.8,29.76,West,276,5.0,5.0,85,0.00,,,0.08,Wunderground v.1.15,2013-02-14 02:50:00,
2013-02-13 22:00:00,53.4,49.0,29.76,WNW,289,6.0,6.0,85,0.00,,,0.08,Wunderground v.1.15,2013-02-14 03:00:00,
2013-02-13 22:06:00,53.4,48.7,29.77,West,259,6.0,6.0,84,0.00,,,0.08,Wunderground v.1.15,2013-02-14 03:06:00,
2013-02-13 22:15:00,53.4,48.7,29.77,WSW,252,6.0,6.0,84,0.00,,,0.08,Wunderground v.1.15,2013-02-14 03:15:00,
2013-02-13 22:20:00,53.5,48.5,29.77,West,277,7.0,7.0,83,0.00,,,0.08,Wunderground v.1.15,2013-02-14 03:20:00,
2013-02-13 22:26:00,53.5,48.5,29.78,West,267,7.0,7.0,83,0.00,,,0.08,Wunderground v.1.15,2013-02-14 03:26:00,
2013-02-13 22:31:00,53.5,48.5,29.76,WNW,294,7.0,7.0,83,0.00,,,0.08,Wunderground v.1.15,2013-02-14 03:31:00,
2013-02-13 22:40:00,53.5,48.5,29.77,West,260,7.0,10.0,83,0.00,,,0.08,Wunderground v.1.15,2013-02-14 03:40:00,
2013-02-13 22:46:00,53.5,48.5,29.77,WNW,284,7.0,10.0,83,0.00,,,0.08,Wunderground v.1.15,2013-02-14 03:46:00,
2013-02-13 22:55:00,53.2,48.5,29.79,WNW,297,7.0,7.0,84,0.00,,,0.08,Wunderground v.1.15,2013-02-14 03:55:00,
2013-02-13 23:00:00,53.2,48.5,29.78,West,263,7.0,7.0,84,0.00,,,0.08,Wunderground v.1.15,2013-02-14 04:00:00,
2013-02-13 23:10:00,53.1,48.7,29.78,West,259,5.0,5.0,85,0.00,,,0.08,Wunderground v.1.15,2013-02-14 04:10:00,
2013-02-13 23:16:00,53.0,48.6,29.79,West,263,6.0,9.0,85,0.00,,,0.08,Wunderground v.1.15,2013-02-14 04:16:00,
2013-02-13 23:26:00,52.9,48.5,29.79,WNW,290,6.0,7.0,85,0.00,,,0.08,Wunderground v.1.15,2013-02-14 04:26:00,
2013-02-13 23:35:00,52.7,48.3,29.79,WNW,285,6.0,7.0,85,0.00,,,0.08,Wunderground v.1.15,2013-02-14 04:35:00,
2013-02-13 23:40:00,52.6,48.5,29.81,West,281,6.0,9.0,86,0.00,,,0.08,Wunderground v.1.15,2013-02-14 04:40:00,
2013-02-13 23:50:00,52.6,48.5,29.81,West,273,6.0,6.0,86,0.00,,,0.08,Wunderground v.1.15,2013-02-14 04:50:00,
2013-02-13 23:55:00,52.5,48.4,29.81,West,270,6.0,6.0,86,0.00,,,0.08,Wunderground v.1.15,2013-02-14 04:55:00,